createdAt,value
2019-05-05T00:00:55.057Z,987.65
2019-05-05T00:01:55.506Z,987.66
2019-05-05T00:02:55.243Z,987.65
2019-05-05T00:03:55.077Z,987.69
2019-05-05T00:04:55.136Z,987.69
2019-05-05T00:05:55.252Z,987.67
2019-05-05T00:06:55.376Z,987.68
2019-05-05T00:07:55.557Z,987.69
2019-05-05T00:08:55.680Z,987.66
2019-05-05T00:09:55.808Z,987.67
2019-05-05T00:10:57.030Z,987.67
2019-05-05T00:11:56.088Z,987.68
2019-05-05T00:12:56.207Z,987.68
2019-05-05T00:13:56.343Z,987.68
2019-05-05T00:14:56.454Z,987.67
2019-05-05T00:15:56.592Z,987.67
2019-05-05T00:16:56.791Z,987.67
2019-05-05T00:17:56.792Z,987.68
2019-05-05T00:18:56.922Z,987.66
2019-05-05T00:19:57.068Z,987.68
2019-05-05T00:20:57.233Z,987.65
2019-05-05T00:21:57.390Z,987.70
2019-05-05T00:22:57.510Z,987.72
2019-05-05T00:23:57.629Z,987.71
2019-05-05T00:24:57.775Z,987.68
2019-05-05T00:25:57.917Z,987.70
2019-05-05T00:26:58.039Z,987.70
2019-05-05T00:27:58.189Z,987.71
2019-05-05T00:28:58.405Z,987.73
2019-05-05T00:29:58.425Z,987.74
2019-05-05T00:30:58.546Z,987.76
2019-05-05T00:31:58.722Z,987.75
2019-05-05T00:32:58.833Z,987.79
2019-05-05T00:33:58.953Z,987.83
2019-05-05T00:34:59.075Z,987.81
2019-05-05T00:35:59.229Z,987.82
2019-05-05T00:36:59.349Z,987.85
2019-05-05T00:37:59.487Z,987.87
2019-05-05T00:38:59.610Z,987.88
2019-05-05T00:39:59.755Z,987.90
2019-05-05T00:40:59.889Z,987.89
2019-05-05T00:42:00.017Z,987.90
2019-05-05T00:43:00.134Z,987.91
2019-05-05T00:44:00.316Z,987.95
2019-05-05T00:45:00.440Z,987.98
2019-05-05T00:46:00.562Z,987.97
2019-05-05T00:47:00.685Z,987.97
2019-05-05T00:48:00.837Z,987.98
2019-05-05T00:49:00.965Z,988.00
2019-05-05T00:50:01.086Z,987.98
2019-05-05T00:51:01.206Z,987.98
2019-05-05T00:52:01.348Z,987.99
2019-05-05T00:53:01.547Z,987.99
2019-05-05T00:54:01.534Z,988.02
2019-05-05T00:55:01.661Z,988.03
2019-05-05T00:56:01.821Z,988.02
2019-05-05T00:57:01.926Z,988.01
2019-05-05T00:58:02.056Z,988.02
2019-05-05T00:59:02.195Z,987.98
2019-05-05T01:00:02.324Z,988.00
2019-05-05T01:01:02.446Z,988.04
2019-05-05T01:02:04.520Z,988.00
2019-05-05T01:03:04.276Z,988.09
2019-05-05T01:04:02.855Z,988.05
2019-05-05T01:05:04.516Z,988.04
2019-05-05T01:06:04.532Z,988.06
2019-05-05T01:07:04.940Z,988.05
2019-05-05T01:08:05.208Z,988.09
2019-05-05T01:09:04.292Z,988.05
2019-05-05T01:10:04.950Z,988.09
2019-05-05T01:11:04.222Z,988.07
2019-05-05T01:12:04.378Z,988.08
2019-05-05T01:13:04.739Z,988.09
2019-05-05T01:14:05.085Z,988.11
2019-05-05T01:15:04.677Z,988.06
2019-05-05T01:16:04.865Z,988.10
2019-05-05T01:17:05.282Z,988.12
2019-05-05T01:18:04.800Z,988.11
2019-05-05T01:19:04.780Z,988.11
2019-05-05T01:20:06.965Z,988.15
2019-05-05T01:21:05.053Z,988.17
2019-05-05T01:22:05.199Z,988.18
2019-05-05T01:23:05.311Z,988.14
2019-05-05T01:24:05.469Z,988.17
2019-05-05T01:25:05.582Z,988.19
2019-05-05T01:26:05.716Z,988.23
2019-05-05T01:27:05.834Z,988.26
2019-05-05T01:28:05.959Z,988.28
2019-05-05T01:29:06.076Z,988.29
2019-05-05T01:30:06.199Z,988.32
2019-05-05T01:31:06.349Z,988.31
2019-05-05T01:33:38.506Z,988.34
2019-05-05T01:34:38.625Z,988.40
2019-05-05T01:35:38.756Z,988.39
2019-05-05T01:36:38.879Z,988.37
2019-05-05T01:37:39.008Z,988.41
2019-05-05T01:38:39.137Z,988.45
2019-05-05T01:39:39.253Z,988.42
2019-05-05T01:40:39.401Z,988.42
2019-05-05T01:41:39.543Z,988.43
2019-05-05T01:42:39.663Z,988.45
2019-05-05T01:43:39.792Z,988.48
2019-05-05T01:44:39.951Z,988.47
2019-05-05T01:45:40.063Z,988.48
2019-05-05T01:46:40.183Z,988.49
2019-05-05T01:47:40.310Z,988.46
2019-05-05T01:48:40.457Z,988.51
2019-05-05T01:49:40.632Z,988.53
2019-05-05T01:50:40.745Z,988.51
2019-05-05T01:51:40.871Z,988.53
2019-05-05T01:52:40.999Z,988.53
2019-05-05T01:53:41.158Z,988.54
2019-05-05T01:54:41.289Z,988.57
2019-05-05T01:55:41.420Z,988.61
2019-05-05T01:56:41.554Z,988.55
2019-05-05T01:57:41.691Z,988.59
2019-05-05T01:58:41.799Z,988.60
2019-05-05T01:59:41.923Z,988.57
2019-05-05T02:00:42.070Z,988.62
2019-05-05T02:01:44.380Z,988.65
2019-05-05T02:02:42.313Z,988.64
2019-05-05T02:03:44.278Z,988.71
2019-05-05T02:04:44.448Z,988.64
2019-05-05T02:05:42.707Z,988.70
2019-05-05T02:06:44.330Z,988.69
2019-05-05T02:07:44.843Z,988.70
2019-05-05T02:08:45.269Z,988.71
2019-05-05T02:09:44.860Z,988.70
2019-05-05T02:10:45.389Z,988.70
2019-05-05T02:11:45.324Z,988.72
2019-05-05T02:12:44.705Z,988.73
2019-05-05T02:13:45.073Z,988.74
2019-05-05T02:14:44.449Z,988.74
2019-05-05T02:15:44.577Z,988.72
2019-05-05T02:16:45.159Z,988.78
2019-05-05T02:17:44.673Z,988.78
2019-05-05T02:18:45.060Z,988.77
2019-05-05T02:19:44.515Z,988.77
2019-05-05T02:20:45.133Z,988.79
2019-05-05T02:21:45.318Z,988.85
2019-05-05T02:22:44.882Z,988.80
2019-05-05T02:23:45.361Z,988.88
2019-05-05T02:24:45.154Z,988.86
2019-05-05T02:25:45.277Z,988.85
2019-05-05T02:26:45.646Z,988.88
2019-05-05T02:27:45.516Z,988.89
2019-05-05T02:28:45.664Z,988.90
2019-05-05T02:29:45.783Z,988.93
2019-05-05T02:30:46.542Z,988.95
2019-05-05T02:31:46.042Z,988.95
2019-05-05T02:32:46.159Z,988.94
2019-05-05T02:33:46.280Z,988.93
2019-05-05T02:34:46.411Z,989.00
2019-05-05T02:35:46.530Z,989.01
2019-05-05T02:36:46.687Z,989.00
2019-05-05T02:37:46.882Z,989.02
2019-05-05T02:38:46.892Z,989.01
2019-05-05T02:39:57.671Z,989.02
2019-05-05T02:40:47.147Z,989.06
2019-05-05T02:41:47.260Z,989.04
2019-05-05T02:42:47.389Z,989.04
2019-05-05T02:43:47.527Z,989.07
2019-05-05T02:44:47.644Z,989.11
2019-05-05T02:45:47.766Z,989.10
2019-05-05T02:46:47.892Z,989.11
2019-05-05T02:47:48.034Z,989.16
2019-05-05T02:48:48.189Z,989.19
2019-05-05T02:49:48.311Z,989.26
2019-05-05T02:50:55.885Z,989.20
2019-05-05T02:51:48.590Z,989.22
2019-05-05T02:52:48.720Z,989.28
2019-05-05T02:53:48.850Z,989.25
2019-05-05T02:54:48.972Z,989.30
2019-05-05T02:55:49.113Z,989.33
2019-05-05T02:56:49.234Z,989.35
2019-05-05T02:57:49.361Z,989.31
2019-05-05T02:58:49.488Z,989.32
2019-05-05T02:59:49.653Z,989.31
2019-05-05T03:00:49.765Z,989.29
2019-05-05T03:01:49.888Z,989.28
2019-05-05T03:02:50.007Z,989.27
2019-05-05T03:03:50.151Z,989.30
2019-05-05T03:04:50.277Z,989.28
2019-05-05T03:05:50.399Z,989.24
2019-05-05T03:06:50.522Z,989.23
2019-05-05T03:07:50.666Z,989.21
2019-05-05T03:08:50.788Z,989.27
2019-05-05T03:09:50.917Z,989.22
2019-05-05T03:10:51.049Z,989.29
2019-05-05T03:11:51.186Z,989.29
2019-05-05T03:12:51.415Z,989.27
2019-05-05T03:13:53.126Z,989.31
2019-05-05T03:14:53.524Z,989.30
2019-05-05T03:15:51.659Z,989.29
2019-05-05T03:16:53.620Z,989.31
2019-05-05T03:17:53.677Z,989.29
2019-05-05T03:18:52.029Z,989.32
2019-05-05T03:19:53.556Z,989.36
2019-05-05T03:21:03.820Z,989.35
2019-05-05T03:21:54.450Z,989.36
2019-05-05T03:22:53.911Z,989.40
2019-05-05T03:23:54.528Z,989.42
2019-05-05T03:24:54.122Z,989.46
2019-05-05T03:25:54.588Z,989.41
2019-05-05T03:26:53.714Z,989.42
2019-05-05T03:27:53.774Z,989.43
2019-05-05T03:28:54.457Z,989.47
2019-05-05T03:29:53.652Z,989.52
2019-05-05T03:30:55.688Z,989.50
2019-05-05T03:31:56.226Z,989.51
2019-05-05T03:32:55.878Z,989.54
2019-05-05T03:33:54.926Z,989.61
2019-05-05T03:34:54.107Z,989.52
2019-05-05T03:35:54.294Z,989.55
2019-05-05T03:36:54.368Z,989.58
2019-05-05T03:37:54.555Z,989.58
2019-05-05T03:38:54.635Z,989.57
2019-05-05T03:39:54.742Z,989.55
2019-05-05T03:40:54.863Z,989.58
2019-05-05T03:41:54.981Z,989.63
2019-05-05T03:42:55.103Z,989.63
2019-05-05T03:43:56.987Z,989.62
2019-05-05T03:44:55.351Z,989.62
2019-05-05T03:45:55.472Z,989.60
2019-05-05T03:46:55.600Z,989.63
2019-05-05T03:47:55.726Z,989.66
2019-05-05T03:48:55.850Z,989.66
2019-05-05T03:49:56.007Z,989.68
2019-05-05T03:50:56.120Z,989.70
2019-05-05T03:51:56.247Z,989.71
2019-05-05T03:52:56.374Z,989.71
2019-05-05T03:53:56.515Z,989.70
2019-05-05T03:54:56.639Z,989.74
2019-05-05T03:55:56.762Z,989.76
2019-05-05T03:56:56.880Z,989.80
2019-05-05T03:57:57.010Z,989.80
2019-05-05T03:58:58.395Z,989.84
2019-05-05T03:59:57.260Z,989.88
2019-05-05T04:00:57.381Z,989.90
2019-05-05T04:01:57.506Z,989.89
2019-05-05T04:02:57.632Z,989.88
2019-05-05T04:03:57.756Z,989.86
2019-05-05T04:04:57.878Z,989.86
2019-05-05T04:05:58.005Z,989.87
2019-05-05T04:06:58.127Z,989.85
2019-05-05T04:07:58.257Z,989.93
2019-05-05T04:08:58.381Z,989.91
2019-05-05T04:09:58.516Z,989.95
2019-05-05T04:10:58.626Z,989.95
2019-05-05T04:11:58.761Z,989.95
2019-05-05T04:12:58.885Z,989.97
2019-05-05T04:13:59.009Z,989.96
2019-05-05T04:14:59.139Z,989.98
2019-05-05T04:15:59.274Z,990.01
2019-05-05T04:16:59.400Z,990.03
2019-05-05T04:17:59.516Z,990.07
2019-05-05T04:18:59.641Z,990.11
2019-05-05T04:19:59.769Z,990.09
2019-05-05T04:20:59.890Z,990.12
2019-05-05T04:22:00.017Z,990.11
2019-05-05T04:23:00.151Z,990.13
2019-05-05T04:24:00.273Z,990.17
2019-05-05T04:25:00.399Z,990.14
2019-05-05T04:26:00.520Z,990.13
2019-05-05T04:27:00.642Z,990.20
2019-05-05T04:28:00.765Z,990.14
2019-05-05T04:29:03.237Z,990.17
2019-05-05T04:30:01.023Z,990.19
2019-05-05T04:31:01.157Z,990.16
2019-05-05T04:32:01.270Z,990.20
2019-05-05T04:33:01.402Z,990.16
2019-05-05T04:34:01.526Z,990.21
2019-05-05T04:35:03.674Z,990.17
2019-05-05T04:36:03.758Z,990.21
2019-05-05T04:37:03.977Z,990.22
2019-05-05T04:38:02.027Z,990.27
2019-05-05T04:39:03.760Z,990.25
2019-05-05T04:40:04.104Z,990.28
2019-05-05T04:41:03.486Z,990.25
2019-05-05T04:42:04.535Z,990.23
2019-05-05T04:43:03.871Z,990.26
2019-05-05T04:44:04.033Z,990.28
2019-05-05T04:45:04.256Z,990.31
2019-05-05T04:46:04.536Z,990.29
2019-05-05T04:47:03.856Z,990.28
2019-05-05T04:48:04.309Z,990.31
2019-05-05T04:49:03.591Z,990.36
2019-05-05T04:50:04.323Z,990.35
2019-05-05T04:51:04.744Z,990.34
2019-05-05T04:52:04.191Z,990.36
2019-05-05T04:53:04.587Z,990.33
2019-05-05T04:54:04.036Z,990.37
2019-05-05T04:55:04.159Z,990.32
2019-05-05T04:56:04.378Z,990.35
2019-05-05T04:57:04.635Z,990.39
2019-05-05T04:58:04.702Z,990.39
2019-05-05T04:59:04.660Z,990.36
2019-05-05T05:00:04.786Z,990.39
2019-05-05T05:01:04.921Z,990.41
2019-05-05T05:02:05.025Z,990.42
2019-05-05T05:03:05.148Z,990.43
2019-05-05T05:04:05.274Z,990.43
2019-05-05T05:05:05.410Z,990.42
2019-05-05T05:06:05.545Z,990.46
2019-05-05T05:07:05.653Z,990.47
2019-05-05T05:08:05.777Z,990.50
2019-05-05T05:09:05.926Z,990.53
2019-05-05T05:10:06.042Z,990.49
2019-05-05T05:11:06.155Z,990.55
2019-05-05T05:12:06.278Z,990.53
2019-05-05T05:13:06.417Z,990.58
2019-05-05T05:14:06.540Z,990.57
2019-05-05T05:15:06.650Z,990.56
2019-05-05T05:16:06.776Z,990.62
2019-05-05T05:17:06.899Z,990.60
2019-05-05T05:18:07.050Z,990.61
2019-05-05T05:19:07.169Z,990.66
2019-05-05T05:20:07.299Z,990.63
2019-05-05T05:21:07.417Z,990.68
2019-05-05T05:22:07.571Z,990.69
2019-05-05T05:23:07.690Z,990.72
2019-05-05T05:24:07.818Z,990.71
2019-05-05T05:25:07.947Z,990.75
2019-05-05T05:26:08.189Z,990.74
2019-05-05T05:27:08.176Z,990.73
2019-05-05T05:28:08.311Z,990.77
2019-05-05T05:29:08.442Z,990.74
2019-05-05T05:30:08.561Z,990.75
2019-05-05T05:31:08.700Z,990.76
2019-05-05T05:32:08.820Z,990.76
2019-05-05T05:33:08.965Z,990.75
2019-05-05T05:34:09.110Z,990.78
2019-05-05T05:35:09.204Z,990.79
2019-05-05T05:36:09.324Z,990.82
2019-05-05T05:37:09.462Z,990.81
2019-05-05T05:38:09.570Z,990.89
2019-05-05T05:39:09.707Z,990.92
2019-05-05T05:40:09.915Z,990.87
2019-05-05T05:41:09.910Z,990.90
2019-05-05T05:42:10.036Z,990.89
2019-05-05T05:43:10.188Z,990.88
2019-05-05T05:44:10.345Z,990.93
2019-05-05T05:45:10.482Z,990.89
2019-05-05T05:46:10.604Z,990.89
2019-05-05T05:47:10.757Z,990.84
2019-05-05T05:48:10.878Z,990.91
2019-05-05T05:49:11.002Z,990.83
2019-05-05T05:50:11.124Z,990.88
2019-05-05T05:51:11.277Z,990.92
2019-05-05T05:52:15.727Z,990.91
2019-05-05T05:53:11.516Z,990.90
2019-05-05T05:54:11.636Z,990.92
2019-05-05T05:55:11.781Z,990.94
2019-05-05T05:56:13.531Z,990.90
2019-05-05T05:57:13.584Z,990.89
2019-05-05T05:58:14.091Z,990.91
2019-05-05T05:59:14.060Z,990.90
2019-05-05T06:00:14.352Z,990.89
2019-05-05T06:01:14.548Z,990.90
2019-05-05T06:02:15.478Z,990.88
2019-05-05T06:03:14.128Z,990.90
2019-05-05T06:04:14.527Z,990.86
2019-05-05T06:05:14.779Z,990.84
2019-05-05T06:06:13.806Z,990.82
2019-05-05T06:07:14.262Z,990.85
2019-05-05T06:08:14.143Z,990.86
2019-05-05T06:09:14.818Z,990.83
2019-05-05T06:10:22.285Z,990.86
2019-05-05T06:11:13.869Z,990.91
2019-05-05T06:12:14.307Z,990.89
2019-05-05T06:13:15.397Z,990.86
2019-05-05T06:14:14.636Z,990.87
2019-05-05T06:15:14.398Z,990.86
2019-05-05T06:16:14.676Z,990.85
2019-05-05T06:17:14.675Z,990.79
2019-05-05T06:18:14.795Z,990.84
2019-05-05T06:19:14.932Z,990.84
2019-05-05T06:20:15.053Z,990.82
2019-05-05T06:21:15.190Z,990.81
2019-05-05T06:22:28.182Z,990.79
2019-05-05T06:23:15.428Z,990.82
2019-05-05T06:24:15.547Z,990.83
2019-05-05T06:25:16.199Z,990.76
2019-05-05T06:26:15.819Z,990.79
2019-05-05T06:27:15.933Z,990.78
2019-05-05T06:28:16.074Z,990.79
2019-05-05T06:29:16.218Z,990.81
2019-05-05T06:30:16.328Z,990.82
2019-05-05T06:31:16.464Z,990.76
2019-05-05T06:32:16.587Z,990.78
2019-05-05T06:33:16.730Z,990.74
2019-05-05T06:34:16.814Z,990.78
2019-05-05T06:35:16.944Z,990.78
2019-05-05T06:36:17.130Z,990.78
2019-05-05T06:37:17.205Z,990.78
2019-05-05T06:38:17.332Z,990.77
2019-05-05T06:39:17.460Z,990.79
2019-05-05T06:40:17.579Z,990.77
2019-05-05T06:41:17.700Z,990.79
2019-05-05T06:42:17.834Z,990.77
2019-05-05T06:43:17.946Z,990.78
2019-05-05T06:44:18.074Z,990.79
2019-05-05T06:45:18.199Z,990.81
2019-05-05T06:46:18.324Z,990.82
2019-05-05T06:47:18.450Z,990.80
2019-05-05T06:48:18.576Z,990.86
2019-05-05T06:49:18.727Z,990.84
2019-05-05T06:50:18.863Z,990.86
2019-05-05T06:51:18.990Z,990.88
2019-05-05T06:52:19.126Z,990.87
2019-05-05T06:53:19.251Z,990.86
2019-05-05T06:54:19.376Z,990.85
2019-05-05T06:55:19.529Z,990.87
2019-05-05T06:56:19.740Z,990.86
2019-05-05T06:57:19.732Z,990.87
2019-05-05T06:58:19.870Z,990.85
2019-05-05T06:59:20.014Z,990.82
2019-05-05T07:00:20.133Z,990.86
2019-05-05T07:01:20.263Z,990.82
2019-05-05T07:02:20.381Z,990.81
2019-05-05T07:03:20.546Z,990.81
2019-05-05T07:04:20.661Z,990.77
2019-05-05T07:05:20.787Z,990.84
2019-05-05T07:06:20.910Z,990.84
2019-05-05T07:07:21.055Z,990.84
2019-05-05T07:08:21.170Z,990.85
2019-05-05T07:09:21.294Z,990.88
2019-05-05T07:10:21.426Z,990.94
2019-05-05T07:11:23.643Z,990.92
2019-05-05T07:12:21.676Z,990.93
2019-05-05T07:13:21.816Z,990.94
2019-05-05T07:14:23.628Z,990.95
2019-05-05T07:15:23.737Z,990.96
2019-05-05T07:16:24.162Z,990.95
2019-05-05T07:17:23.963Z,990.96
2019-05-05T07:18:24.555Z,990.96
2019-05-05T07:19:23.951Z,990.96
2019-05-05T07:20:24.131Z,990.92
2019-05-05T07:21:23.677Z,990.91
2019-05-05T07:22:24.393Z,990.94
2019-05-05T07:23:24.587Z,990.92
2019-05-05T07:24:23.913Z,990.91
2019-05-05T07:25:24.270Z,990.90
2019-05-05T07:26:23.859Z,990.92
2019-05-05T07:27:24.327Z,990.91
2019-05-05T07:28:23.681Z,990.91
2019-05-05T07:29:24.052Z,990.88
2019-05-05T07:30:24.372Z,990.88
2019-05-05T07:31:24.090Z,990.84
2019-05-05T07:32:24.667Z,990.86
2019-05-05T07:33:24.337Z,990.85
2019-05-05T07:34:24.462Z,990.83
2019-05-05T07:35:24.728Z,990.81
2019-05-05T07:36:25.002Z,990.84
2019-05-05T07:37:24.872Z,990.84
2019-05-05T07:38:25.015Z,990.90
2019-05-05T07:39:25.114Z,990.82
2019-05-05T07:40:25.245Z,990.86
2019-05-05T07:41:25.379Z,990.86
2019-05-05T07:42:25.505Z,990.86
2019-05-05T07:43:25.622Z,990.85
2019-05-05T07:44:29.516Z,990.88
2019-05-05T07:45:26.038Z,990.88
2019-05-05T07:46:26.004Z,990.90
2019-05-05T07:47:26.126Z,990.83
2019-05-05T07:48:26.253Z,990.83
2019-05-05T07:49:26.388Z,990.81
2019-05-05T07:50:32.138Z,990.79
2019-05-05T07:51:26.652Z,990.80
2019-05-05T07:52:26.780Z,990.78
2019-05-05T07:53:26.906Z,990.77
2019-05-05T07:54:27.029Z,990.72
2019-05-05T07:55:27.159Z,990.72
2019-05-05T07:56:27.285Z,990.75
2019-05-05T07:57:27.412Z,990.72
2019-05-05T07:58:27.542Z,990.77
2019-05-05T07:59:27.676Z,990.82
2019-05-05T08:00:27.789Z,990.84
2019-05-05T08:01:27.919Z,990.87
2019-05-05T08:02:28.042Z,990.88
2019-05-05T08:03:28.169Z,990.86
2019-05-05T08:04:28.308Z,990.85
2019-05-05T08:05:28.427Z,990.85
2019-05-05T08:06:28.550Z,990.90
2019-05-05T08:07:28.670Z,990.90
2019-05-05T08:08:28.814Z,990.86
2019-05-05T08:09:28.950Z,990.87
2019-05-05T08:10:29.074Z,990.91
2019-05-05T08:11:29.202Z,990.86
2019-05-05T08:12:29.320Z,990.93
2019-05-05T08:13:29.451Z,990.87
2019-05-05T08:14:29.583Z,990.86
2019-05-05T08:15:29.703Z,990.84
2019-05-05T08:16:29.836Z,990.90
2019-05-05T08:17:29.962Z,990.86
2019-05-05T08:18:30.092Z,990.84
2019-05-05T08:19:30.230Z,990.86
2019-05-05T08:20:30.354Z,990.87
2019-05-05T08:21:30.490Z,990.88
2019-05-05T08:22:30.626Z,990.86
2019-05-05T08:23:32.799Z,990.81
2019-05-05T08:24:30.873Z,990.88
2019-05-05T08:25:37.487Z,990.83
2019-05-05T08:26:31.120Z,990.83
2019-05-05T08:27:31.254Z,990.81
2019-05-05T08:28:31.376Z,990.85
2019-05-05T08:29:31.519Z,990.82
2019-05-05T08:30:33.511Z,990.80
2019-05-05T08:31:33.457Z,990.85
2019-05-05T08:32:35.072Z,990.84
2019-05-05T08:33:33.612Z,990.86
2019-05-05T08:34:33.953Z,990.86
2019-05-05T08:35:34.282Z,990.85
2019-05-05T08:36:33.869Z,990.84
2019-05-05T08:37:34.299Z,990.79
2019-05-05T08:38:34.604Z,990.78
2019-05-05T08:39:34.524Z,990.75
2019-05-05T08:40:34.538Z,990.78
2019-05-05T08:41:33.842Z,990.79
2019-05-05T08:42:33.938Z,990.80
2019-05-05T08:43:34.770Z,990.80
2019-05-05T08:44:34.344Z,990.78
2019-05-05T08:45:34.989Z,990.84
2019-05-05T08:46:34.092Z,990.83
2019-05-05T08:47:34.604Z,990.82
2019-05-05T08:48:34.249Z,990.83
2019-05-05T08:49:34.775Z,990.88
2019-05-05T08:50:34.964Z,990.86
2019-05-05T08:51:34.457Z,990.89
2019-05-05T08:52:34.584Z,990.91
2019-05-05T08:53:42.520Z,990.88
2019-05-05T08:54:34.884Z,990.91
2019-05-05T08:55:35.001Z,990.88
2019-05-05T08:56:35.121Z,990.90
2019-05-05T08:57:35.271Z,990.88
2019-05-05T08:58:35.389Z,990.89
2019-05-05T08:59:35.524Z,990.92
2019-05-05T09:00:35.641Z,990.96
2019-05-05T09:01:35.794Z,990.90
2019-05-05T09:02:36.120Z,990.95
2019-05-05T09:03:36.060Z,990.94
2019-05-05T09:04:36.188Z,990.92
2019-05-05T09:05:36.336Z,990.92
2019-05-05T09:06:37.835Z,990.91
2019-05-05T09:07:36.600Z,990.91
2019-05-05T09:08:36.722Z,990.90
2019-05-05T09:09:36.885Z,990.95
2019-05-05T09:10:37.010Z,991.00
2019-05-05T09:11:37.133Z,990.98
2019-05-05T09:12:37.282Z,990.99
2019-05-05T09:13:37.406Z,991.00
2019-05-05T09:14:37.536Z,991.00
2019-05-05T09:15:37.803Z,990.98
2019-05-05T09:16:37.809Z,991.00
2019-05-05T09:17:37.914Z,991.02
2019-05-05T09:18:38.041Z,990.99
2019-05-05T09:19:38.154Z,990.96
2019-05-05T09:20:38.296Z,990.94
2019-05-05T09:21:38.439Z,990.95
2019-05-05T09:22:38.569Z,991.01
2019-05-05T09:23:38.699Z,990.97
2019-05-05T09:24:38.826Z,990.99
2019-05-05T09:25:38.964Z,990.98
2019-05-05T09:26:39.093Z,991.00
2019-05-05T09:27:39.450Z,991.03
2019-05-05T09:28:39.540Z,991.04
2019-05-05T09:29:39.617Z,991.03
2019-05-05T09:30:39.548Z,991.00
2019-05-05T09:31:39.918Z,991.07
2019-05-05T09:32:39.807Z,991.04
2019-05-05T09:33:39.945Z,991.02
2019-05-05T09:34:40.081Z,991.06
2019-05-05T09:35:40.206Z,991.04
2019-05-05T09:36:40.352Z,991.03
2019-05-05T09:37:40.465Z,991.02
2019-05-05T09:38:40.600Z,991.00
2019-05-05T09:39:40.737Z,991.01
2019-05-05T09:40:40.867Z,991.04
2019-05-05T09:41:40.984Z,991.00
2019-05-05T09:42:41.127Z,991.01
2019-05-05T09:43:41.251Z,990.95
2019-05-05T09:44:43.632Z,990.95
2019-05-05T09:45:41.507Z,990.99
2019-05-05T09:46:41.646Z,990.99
2019-05-05T09:47:41.760Z,990.98
2019-05-05T09:48:43.891Z,990.99
2019-05-05T09:49:44.263Z,991.02
2019-05-05T09:50:43.628Z,991.06
2019-05-05T09:51:44.007Z,991.09
2019-05-05T09:52:44.210Z,991.06
2019-05-05T09:53:44.608Z,991.06
2019-05-05T09:54:43.842Z,991.05
2019-05-05T09:55:44.285Z,991.09
2019-05-05T09:56:44.418Z,991.13
2019-05-05T09:57:43.804Z,991.11
2019-05-05T09:58:44.064Z,991.13
2019-05-05T09:59:44.091Z,991.14
2019-05-05T10:00:44.187Z,991.09
2019-05-05T10:01:44.481Z,991.11
2019-05-05T10:02:44.284Z,991.08
2019-05-05T10:03:44.684Z,991.12
2019-05-05T10:04:44.237Z,991.10
2019-05-05T10:05:44.191Z,991.12
2019-05-05T10:06:47.678Z,991.06
2019-05-05T10:07:44.447Z,990.98
2019-05-05T10:08:44.771Z,991.06
2019-05-05T10:09:44.729Z,991.06
2019-05-05T10:10:44.856Z,991.10
2019-05-05T10:11:45.135Z,991.09
2019-05-05T10:12:45.148Z,991.11
2019-05-05T10:13:45.247Z,991.11
2019-05-05T10:14:45.412Z,991.13
2019-05-05T10:15:45.563Z,991.12
2019-05-05T10:16:45.678Z,991.12
2019-05-05T10:17:45.816Z,991.17
2019-05-05T10:18:45.947Z,991.11
2019-05-05T10:19:46.074Z,991.14
2019-05-05T10:20:46.211Z,991.19
2019-05-05T10:21:46.405Z,991.18
2019-05-05T10:22:46.496Z,991.17
2019-05-05T10:23:46.626Z,991.16
2019-05-05T10:24:46.759Z,991.20
2019-05-05T10:25:46.906Z,991.16
2019-05-05T10:26:47.032Z,991.19
2019-05-05T10:27:47.831Z,991.21
2019-05-05T10:28:47.301Z,991.23
2019-05-05T10:29:47.426Z,991.24
2019-05-05T10:30:47.561Z,991.24
2019-05-05T10:31:47.698Z,991.27
2019-05-05T10:32:47.830Z,991.21
2019-05-05T10:33:47.974Z,991.26
2019-05-05T10:34:48.114Z,991.31
2019-05-05T10:35:48.260Z,991.28
2019-05-05T10:36:48.391Z,991.29
2019-05-05T10:37:48.521Z,991.29
2019-05-05T10:38:48.644Z,991.24
2019-05-05T10:39:48.801Z,991.20
2019-05-05T10:40:48.923Z,991.27
2019-05-05T10:41:49.055Z,991.24
2019-05-05T10:42:49.179Z,991.28
2019-05-05T10:43:49.307Z,991.25
2019-05-05T10:44:49.440Z,991.24
2019-05-05T10:45:49.569Z,991.19
2019-05-05T10:46:49.705Z,991.24
2019-05-05T10:47:49.827Z,991.21
2019-05-05T10:48:49.963Z,991.23
2019-05-05T10:49:50.091Z,991.24
2019-05-05T10:50:50.203Z,991.25
2019-05-05T10:51:50.345Z,991.24
2019-05-05T10:52:50.477Z,991.21
2019-05-05T10:53:50.619Z,991.20
2019-05-05T10:54:50.755Z,991.18
2019-05-05T10:55:50.909Z,991.15
2019-05-05T10:56:51.015Z,991.13
2019-05-05T10:57:51.144Z,991.18
2019-05-05T10:58:51.279Z,991.17
2019-05-05T10:59:51.402Z,991.14
2019-05-05T11:00:51.532Z,991.18
2019-05-05T11:01:53.783Z,991.16
2019-05-05T11:02:51.803Z,991.17
2019-05-05T11:03:51.940Z,991.17
2019-05-05T11:04:52.080Z,991.19
2019-05-05T11:05:53.800Z,991.24
2019-05-05T11:06:54.226Z,991.21
2019-05-05T11:07:53.755Z,991.26
2019-05-05T11:08:53.987Z,991.23
2019-05-05T11:09:52.757Z,991.22
2019-05-05T11:10:52.893Z,991.24
2019-05-05T11:11:53.033Z,991.24
2019-05-05T11:12:53.560Z,991.24
2019-05-05T11:13:54.286Z,991.28
2019-05-05T11:14:54.460Z,991.24
2019-05-05T11:15:54.695Z,991.22
2019-05-05T11:16:54.639Z,991.29
2019-05-05T11:17:54.278Z,991.33
2019-05-05T11:18:54.124Z,991.36
2019-05-05T11:19:54.063Z,991.36
2019-05-05T11:20:54.821Z,991.36
2019-05-05T11:21:54.344Z,991.41
2019-05-05T11:22:54.460Z,991.39
2019-05-05T11:23:54.603Z,991.42
2019-05-05T11:25:00.118Z,991.44
2019-05-05T11:25:54.879Z,991.41
2019-05-05T11:26:54.999Z,991.40
2019-05-05T11:27:55.115Z,991.41
2019-05-05T11:28:55.266Z,991.35
2019-05-05T11:29:55.389Z,991.38
2019-05-05T11:30:55.531Z,991.40
2019-05-05T11:31:55.679Z,991.39
2019-05-05T11:32:55.801Z,991.43
2019-05-05T11:33:55.930Z,991.42
2019-05-05T11:34:56.069Z,991.43
2019-05-05T11:35:56.183Z,991.37
2019-05-05T11:36:56.328Z,991.45
2019-05-05T11:37:56.450Z,991.45
2019-05-05T11:38:56.588Z,991.44
2019-05-05T11:39:56.708Z,991.46
2019-05-05T11:40:56.830Z,991.48
2019-05-05T11:41:56.957Z,991.49
2019-05-05T11:42:57.101Z,991.46
2019-05-05T11:43:57.227Z,991.47
2019-05-05T11:44:57.359Z,991.47
2019-05-05T11:45:57.480Z,991.48
2019-05-05T11:46:57.648Z,991.48
2019-05-05T11:47:57.771Z,991.46
2019-05-05T11:48:57.915Z,991.48
2019-05-05T11:49:58.061Z,991.43
2019-05-05T11:50:58.197Z,991.45
2019-05-05T11:51:58.316Z,991.42
2019-05-05T11:52:58.487Z,991.44
2019-05-05T11:53:58.616Z,991.46
2019-05-05T11:55:09.772Z,991.43
2019-05-05T11:55:58.907Z,991.46
2019-05-05T11:56:59.019Z,991.47
2019-05-05T11:57:59.186Z,991.45
2019-05-05T11:58:59.309Z,991.43
2019-05-05T11:59:59.442Z,991.42
2019-05-05T12:00:59.574Z,991.49
2019-05-05T12:01:59.709Z,991.43
2019-05-05T12:02:59.826Z,991.41
2019-05-05T12:03:59.968Z,991.43
2019-05-05T12:05:00.108Z,991.42
2019-05-05T12:06:00.223Z,991.37
2019-05-05T12:07:00.373Z,991.37
2019-05-05T12:08:00.491Z,991.35
2019-05-05T12:09:00.640Z,991.36
2019-05-05T12:10:00.754Z,991.35
2019-05-05T12:11:00.876Z,991.37
2019-05-05T12:12:01.027Z,991.34
2019-05-05T12:13:01.154Z,991.39
2019-05-05T12:14:03.498Z,991.36
2019-05-05T12:15:01.423Z,991.37
2019-05-05T12:16:01.552Z,991.37
2019-05-05T12:17:01.696Z,991.38
2019-05-05T12:18:03.733Z,991.37
2019-05-05T12:19:01.954Z,991.41
2019-05-05T12:20:02.086Z,991.39
2019-05-05T12:21:02.207Z,991.37
2019-05-05T12:22:02.353Z,991.37
2019-05-05T12:23:04.524Z,991.39
2019-05-05T12:24:03.822Z,991.36
2019-05-05T12:25:04.148Z,991.34
2019-05-05T12:26:04.680Z,991.32
2019-05-05T12:27:03.726Z,991.31
2019-05-05T12:28:04.439Z,991.33
2019-05-05T12:29:03.287Z,991.34
2019-05-05T12:30:03.883Z,991.33
2019-05-05T12:31:03.669Z,991.35
2019-05-05T12:32:03.699Z,991.34